MBS - Mbs Intl

Pirep is a free, collaborative database of all public and private airports located within the United States. All pilots are welcome to contribute, edit, and improve any airport they have local knowledge about, no registration required.
Uploaded photos will be licensed under a CC BY-SA 4.0 license. Please only upload photos you have the rights to use.
Tags
Public
METAR / TAF
Car Rental
Flying Clubs
Edit Tags
Food
Camping
Lodging
Bicycles
Swimming
Golfing
Fishing
Hot Springs
Museum
Airpark
Upcoming Events
No upcoming events. Is anything happening here soon?
*
*
*

Where exactly on/near the airport is this event taking place?

Is there a webpage with more information for this event?

Who should be contacted for more information?

What is this event all about?

Repeat every
Description
Transient Parking
Fuel Location
Landing & Tie-down Fees
Crew Car Availability
Flying Clubs
Last updated: 2024-02-25 01:08:29 EST
WiFi Access
Airport Statistics
Location: Saginaw, MI
Elevation: 668ft
Sectional: Detroit
Activation date: Mar 1943
Fuel: 100LL, A (prices)
Runway 05/23: 8,002ft
Runway 14/32: 6,399ft
Access: Open to the public
Current Weather — MVFR
  • Weather data is strictly informational and not for flight planning purposes.
  • METAR
    2024-04-24 05:53:00 EDT
    Ceiling Wind Temperature Dewpoint Weather Visbility
    1,900ft 340° @ 12kt 37°F 33°F N/A 10SM
    Clouds: Broken @ 1,900ft, Broken @ 2,400ft, Overcast @ 2,900ft
    Raw: KMBS 240953Z 34012KT 10SM BKN019 BKN024 OVC029 03/01 A3000 RMK AO2 SLP162 T00330006
  • TAF
    2024-04-24 03:00:00 EDT – 2024-04-24 10:00:00 EDT
    Ceiling Wind Weather Visbility
    1,400ft 20° @ 17kt, gusts 26kt Light drizzle 6SM
    Clouds: Overcast @ 1,400ft
    Raw: KMBS 240702Z 2407/2506 02017G26KT P6SM -DZ OVC014 FM241400 03014G24KT P6SM BKN024 FM241600 03012G22KT P6SM SKC FM250100 04008KT P6SM SKC
  • TAF
    2024-04-24 10:00:00 EDT – 2024-04-24 12:00:00 EDT
    Ceiling Wind Weather Visbility
    2,400ft 30° @ 14kt, gusts 24kt N/A 6SM
    Clouds: Broken @ 2,400ft
    Raw: KMBS 240702Z 2407/2506 02017G26KT P6SM -DZ OVC014 FM241400 03014G24KT P6SM BKN024 FM241600 03012G22KT P6SM SKC FM250100 04008KT P6SM SKC
  • TAF
    2024-04-24 12:00:00 EDT – 2024-04-24 21:00:00 EDT
    Ceiling Wind Weather Visbility
    Sky clear 30° @ 12kt, gusts 22kt N/A 6SM
    Clouds: @ ft
    Raw: KMBS 240702Z 2407/2506 02017G26KT P6SM -DZ OVC014 FM241400 03014G24KT P6SM BKN024 FM241600 03012G22KT P6SM SKC FM250100 04008KT P6SM SKC
  • TAF
    2024-04-24 21:00:00 EDT – 2024-04-25 02:00:00 EDT
    Ceiling Wind Weather Visbility
    Sky clear 40° @ 8kt N/A 6SM
    Clouds: @ ft
    Raw: KMBS 240702Z 2407/2506 02017G26KT P6SM -DZ OVC014 FM241400 03014G24KT P6SM BKN024 FM241600 03012G22KT P6SM SKC FM250100 04008KT P6SM SKC
Click/tap to add an annotation marker to the map
Airport Webcams
No webcams added yet.
Direct links to live image URLs will be displayed inline on this page. URLs to separate webpages will be linked to.
URL:
Direct links to live image URLs will be displayed inline on this page. URLs to separate webpages will be linked to.
URL:
Remarks
  • Index c arff svc avbl upon req.
  • Birds on & invof arpt.
  • For cd when atct clsd ctc great lakes apch at 269-459-3345, when apch clsd ctc cleveland artcc at 440-774-0224/0490.
  • When atct clsd actvt malsr rwy 05 & 23; reil rwy 14 & 32; hirl rwy 05/23 & 14/32 - ctaf. papi rwy 14, 23, & 32 opr consly.
  • Waived with fuel purchase.
Comments
Leave a comment What was your experience like at this airport?